Time;durP1;ratioP1;P1;durP2;ratioP2;P2;SDS_P1;SDS_P2;PMS_P1;PMS_P2;Temp;Humidity;BMP_temperature;BMP_pressure;BME280_temperature;BME280_humidity;BME280_pressure;Samples;Min_cycle;Max_cycle;Signal;HPM_P1;HPM_P2
2022/09/09 00:04:38;;;;;;;5.97;1.55;;;25.20;57.00;;;;;;10483889;28;20054;-33
2022/09/09 00:09:48;;;;;;;2.72;1.42;;;25.20;56.80;;;;;;10484545;28;20040;-32
2022/09/09 00:14:55;;;;;;;4.90;2.03;;;25.40;57.00;;;;;;10482340;28;20040;-33
2022/09/09 00:20:02;;;;;;;2.25;1.52;;;25.40;56.60;;;;;;10483918;28;20037;-32
2022/09/09 00:25:12;;;;;;;3.80;2.20;;;25.40;56.50;;;;;;10480475;28;20140;-34
2022/09/09 00:30:19;;;;;;;2.97;1.60;;;25.40;56.30;;;;;;10481878;28;20121;-33
2022/09/09 00:35:25;;;;;;;3.28;1.70;;;25.40;56.20;;;;;;10482289;28;20048;-33
2022/09/09 00:40:34;;;;;;;3.75;1.98;;;25.40;56.20;;;;;;10480578;28;20055;-33
2022/09/09 00:45:53;;;;;;;3.50;1.60;;;25.40;56.30;;;;;;10477761;28;20413;-31
2022/09/09 00:51:00;;;;;;;4.90;1.85;;;25.50;56.30;;;;;;10480990;28;20716;-33
2022/09/09 00:56:12;;;;;;;5.82;2.30;;;25.40;56.40;;;;;;10479230;28;20467;-34
2022/09/09 01:01:14;;;;;;;3.72;1.88;;;25.40;56.20;;;;;;10480577;28;20511;-31
2022/09/09 01:06:22;;;;;;;4.22;2.03;;;25.40;56.40;;;;;;10471524;28;20051;-33
2022/09/09 01:11:33;;;;;;;2.78;1.73;;;25.30;56.20;;;;;;10481607;28;20131;-33
2022/09/09 01:16:35;;;;;;;3.60;1.55;;;25.20;56.20;;;;;;10480717;28;20048;-33
2022/09/09 01:21:50;;;;;;;5.40;1.70;;;25.80;56.50;;;;;;10481221;28;20047;-31
2022/09/09 01:26:55;;;;;;;3.88;2.20;;;25.20;56.80;;;;;;10480620;28;20086;-33
2022/09/09 01:31:59;;;;;;;4.13;2.28;;;25.20;56.20;;;;;;10481878;28;20106;-32
2022/09/09 01:37:05;;;;;;;2.85;1.63;;;25.20;56.20;;;;;;10480513;28;20044;-33
2022/09/09 01:42:12;;;;;;;4.18;1.65;;;25.10;56.10;;;;;;10480990;28;20076;-31
2022/09/09 01:47:16;;;;;;;1.70;1.30;;;25.20;56.30;;;;;;10479066;28;20048;-33
2022/09/09 01:52:18;;;;;;;3.13;1.73;;;25.00;56.40;;;;;;10481347;28;20476;-30
2022/09/09 01:57:25;;;;;;;4.38;1.88;;;25.20;56.50;;;;;;10480200;28;20054;-32
2022/09/09 02:02:32;;;;;;;5.38;1.73;;;25.10;56.40;;;;;;10477918;28;20079;-33
2022/09/09 02:07:40;;;;;;;3.03;1.30;;;25.30;56.50;;;;;;10476393;28;20084;-34
2022/09/09 02:12:47;;;;;;;4.60;1.35;;;24.90;56.40;;;;;;10480121;28;20121;-34
2022/09/09 02:17:52;;;;;;;3.17;1.23;;;24.90;56.70;;;;;;10477542;28;20097;-34
2022/09/09 02:22:56;;;;;;;3.47;1.48;;;24.90;56.40;;;;;;10479929;28;20044;-34
2022/09/09 02:28:00;;;;;;;2.15;1.20;;;24.90;56.40;;;;;;10478995;28;20058;-34
2022/09/09 02:33:06;;;;;;;3.20;1.42;;;24.90;57.40;;;;;;10480056;28;20033;-32
2022/09/09 02:38:12;;;;;;;2.10;1.33;;;24.90;56.80;;;;;;10479749;28;20045;-33
2022/09/09 02:43:17;;;;;;;2.65;1.40;;;24.90;56.60;;;;;;10480242;28;20047;-34
2022/09/09 02:48:26;;;;;;;3.83;1.23;;;24.80;56.60;;;;;;10485066;28;20048;-34
2022/09/09 02:53:36;;;;;;;4.13;1.35;;;24.70;56.70;;;;;;10486863;28;20040;-34
2022/09/09 02:58:40;;;;;;;2.25;1.20;;;24.70;56.80;;;;;;10486699;28;20056;-34
2022/09/09 03:03:44;;;;;;;3.47;1.30;;;24.70;56.60;;;;;;10485514;28;20045;-34
2022/09/09 03:08:45;;;;;;;4.13;1.30;;;24.70;56.80;;;;;;10482257;28;20623;-33
2022/09/09 03:13:49;;;;;;;3.05;1.17;;;24.60;56.80;;;;;;10485735;28;20098;-33
2022/09/09 03:18:52;;;;;;;2.13;1.05;;;24.60;57.00;;;;;;10484844;28;20327;-34
2022/09/09 03:23:54;;;;;;;2.28;1.00;;;24.50;57.20;;;;;;10484420;28;20547;-33
2022/09/09 03:28:57;;;;;;;2.47;0.82;;;24.60;57.90;;;;;;10486001;28;20064;-34
2022/09/09 03:33:59;;;;;;;1.30;0.70;;;24.40;57.70;;;;;;10484957;28;20128;-33
2022/09/09 03:39:02;;;;;;;1.50;0.82;;;24.50;56.80;;;;;;10486613;28;20048;-32
2022/09/09 03:44:06;;;;;;;2.28;0.98;;;24.80;57.20;;;;;;10483468;28;20135;-30
2022/09/09 03:49:08;;;;;;;1.42;0.95;;;24.40;57.10;;;;;;10482816;28;20139;-33
2022/09/09 03:54:10;;;;;;;1.58;0.93;;;24.50;57.10;;;;;;10484675;28;20094;-32
2022/09/09 03:59:14;;;;;;;;;;;24.30;57.20;;;;;;10483860;28;20140;-32
2022/09/09 04:04:16;;;;;;;1.95;1.05;;;24.30;57.30;;;;;;10482808;28;19928;-33
2022/09/09 04:09:18;;;;;;;2.05;1.00;;;24.40;57.20;;;;;;10481343;28;20621;-31
2022/09/09 04:14:21;;;;;;;4.55;1.70;;;24.40;57.30;;;;;;10482735;28;20135;-33
2022/09/09 04:19:23;;;;;;;2.13;0.73;;;24.30;57.10;;;;;;10480011;28;20131;-34
2022/09/09 04:24:28;;;;;;;;;;;24.40;57.40;;;;;;10479232;28;20048;-33
2022/09/09 04:29:32;;;;;;;2.70;1.10;;;24.30;57.30;;;;;;10478230;28;20621;-32
2022/09/09 04:34:33;;;;;;;4.72;0.80;;;24.30;57.40;;;;;;10479397;28;20068;-33
2022/09/09 04:39:35;;;;;;;1.40;0.57;;;24.30;57.50;;;;;;10477144;28;20288;-33
2022/09/09 04:44:39;;;;;;;;;;;24.20;57.00;;;;;;10480956;28;20047;-33
2022/09/09 04:49:40;;;;;;;3.13;0.70;;;24.20;58.30;;;;;;10476633;28;19932;-32
2022/09/09 04:54:42;;;;;;;;;;;24.30;57.60;;;;;;10478769;28;20052;-33
2022/09/09 04:59:45;;;;;;;2.35;0.85;;;24.30;58.30;;;;;;10469503;28;20550;-33
2022/09/09 05:04:49;;;;;;;3.08;1.00;;;24.20;58.00;;;;;;10478034;28;20536;-33
2022/09/09 05:09:51;;;;;;;4.25;2.13;;;24.20;57.80;;;;;;10479178;28;20072;-33
2022/09/09 05:14:54;;;;;;;;;;;24.10;57.70;;;;;;10478299;28;20496;-30
2022/09/09 05:19:56;;;;;;;6.18;1.58;;;24.20;57.80;;;;;;10474321;28;20035;-33
2022/09/09 05:24:58;;;;;;;3.00;1.38;;;23.90;58.40;;;;;;10476560;28;20153;-33
2022/09/09 05:30:01;;;;;;;3.47;2.17;;;24.90;58.10;;;;;;10479750;28;20045;-32
2022/09/09 05:35:03;;;;;;;5.50;1.50;;;23.80;58.80;;;;;;10480648;28;20059;-33
2022/09/09 05:40:07;;;;;;;5.55;1.30;;;24.00;58.50;;;;;;10475217;28;20060;-33
2022/09/09 05:45:11;;;;;;;4.30;1.35;;;23.80;58.30;;;;;;10476639;28;20133;-35
2022/09/09 05:50:14;;;;;;;4.50;1.80;;;23.80;58.10;;;;;;10477705;28;20114;-33
2022/09/09 05:55:16;;;;;;;4.13;1.33;;;24.00;58.30;;;;;;10478918;28;20493;-33
2022/09/09 06:00:20;;;;;;;;;;;24.10;58.10;;;;;;10480781;28;20045;-32
2022/09/09 06:05:22;;;;;;;4.10;1.80;;;23.70;59.00;;;;;;10471218;28;19986;-34
2022/09/09 06:10:24;;;;;;;4.40;1.60;;;24.00;58.10;;;;;;10425803;28;20076;-34
2022/09/09 06:15:30;;;;;;;5.50;2.15;;;24.00;58.60;;;;;;10405348;28;20073;-33
2022/09/09 06:20:32;;;;;;;2.88;1.50;;;24.00;58.80;;;;;;10438142;28;20140;-32
2022/09/09 06:25:34;;;;;;;6.32;2.35;;;23.90;58.40;;;;;;10443632;28;20517;-34
2022/09/09 06:30:37;;;;;;;4.50;2.00;;;24.00;58.00;;;;;;10442440;28;20059;-34
2022/09/09 06:35:39;;;;;;;5.40;2.63;;;23.90;58.20;;;;;;10445201;28;20484;-30
2022/09/09 06:40:41;;;;;;;;;;;23.50;58.80;;;;;;10445465;28;20085;-34
2022/09/09 06:45:44;;;;;;;6.43;2.10;;;23.70;58.30;;;;;;10431813;28;20369;-32
2022/09/09 06:50:47;;;;;;;3.42;1.67;;;24.00;58.10;;;;;;10438267;28;20057;-31
2022/09/09 06:55:48;;;;;;;5.00;2.17;;;24.10;57.60;;;;;;10434550;28;20045;-33
2022/09/09 07:00:52;;;;;;;;;;;23.70;59.00;;;;;;10434493;28;20061;-33
2022/09/09 07:05:58;;;;;;;4.05;1.98;;;24.00;58.40;;;;;;10435787;28;19939;-32
2022/09/09 07:11:05;;;;;;;5.20;2.20;;;24.10;58.10;;;;;;10439181;28;20041;-33
2022/09/09 07:16:11;;;;;;;4.85;1.52;;;24.70;58.70;;;;;;10435896;28;20489;-33
2022/09/09 07:21:15;;;;;;;5.13;1.55;;;23.80;57.70;;;;;;10441232;28;20057;-34
2022/09/09 07:26:20;;;;;;;5.03;1.50;;;23.90;58.30;;;;;;10441813;28;20104;-33
2022/09/09 07:31:24;;;;;;;9.80;2.00;;;24.00;57.80;;;;;;10438737;28;20136;-34
2022/09/09 07:36:28;;;;;;;8.27;1.55;;;24.10;57.70;;;;;;10442111;28;20103;-33
2022/09/09 07:41:33;;;;;;;3.67;2.00;;;24.00;57.90;;;;;;10437823;28;20081;-33
2022/09/09 07:46:39;;;;;;;4.88;1.40;;;24.10;57.50;;;;;;10436247;28;20053;-34
2022/09/09 07:51:43;;;;;;;3.83;1.95;;;23.60;58.40;;;;;;10441591;28;20063;-31
2022/09/09 07:56:46;;;;;;;3.63;1.80;;;23.80;58.00;;;;;;10442105;28;20509;-33
2022/09/09 08:01:54;;;;;;;5.15;1.90;;;23.90;57.90;;;;;;10440158;28;20049;-32
2022/09/09 08:06:58;;;;;;;4.18;1.60;;;24.00;58.10;;;;;;10440347;28;20048;-34
2022/09/09 08:12:01;;;;;;;4.68;1.88;;;23.90;57.80;;;;;;10439933;28;20126;-32
2022/09/09 08:17:04;;;;;;;3.80;1.92;;;23.80;58.40;;;;;;10441567;28;20071;-33
2022/09/09 08:22:06;;;;;;;3.78;1.58;;;23.90;58.10;;;;;;10437821;28;20136;-33
2022/09/09 08:27:09;;;;;;;9.00;2.47;;;23.60;58.30;;;;;;10439370;28;20053;-32
2022/09/09 08:32:14;;;;;;;2.33;1.17;;;23.40;59.10;;;;;;10438834;28;20053;-38
2022/09/09 08:37:16;;;;;;;5.60;1.55;;;23.40;58.90;;;;;;10440667;28;20127;-39
2022/09/09 08:42:37;;;;;;;;;;;23.50;58.50;;;;;;10440845;28;20134;-38
2022/09/09 08:47:51;;;;;;;6.72;2.20;;;23.50;58.60;;;;;;10434888;28;19932;-39
2022/09/09 08:53:01;;;;;;;5.45;1.30;;;23.50;58.60;;;;;;10436058;28;20128;-36
2022/09/09 08:58:14;;;;;;;4.32;1.60;;;23.70;58.20;;;;;;10439683;28;20050;-40
2022/09/09 09:03:27;;;;;;;3.90;1.40;;;23.90;57.80;;;;;;10434709;28;20051;-38
2022/09/09 09:08:37;;;;;;;6.82;1.65;;;23.40;59.10;;;;;;10437406;28;20067;-39
2022/09/09 09:13:44;;;;;;;4.35;1.55;;;23.60;58.40;;;;;;10437961;28;20045;-40
2022/09/09 09:18:47;;;;;;;2.65;1.40;;;23.70;58.40;;;;;;10437577;28;20477;-32
2022/09/09 09:23:59;;;;;;;4.35;1.60;;;23.70;58.40;;;;;;10437464;28;20048;-37
2022/09/09 09:29:04;;;;;;;;;;;23.60;58.80;;;;;;10438512;28;20044;-37
2022/09/09 09:34:10;;;;;;;5.43;1.52;;;22.80;57.90;;;;;;10433727;28;19982;-35
2022/09/09 09:39:24;;;;;;;4.40;1.27;;;23.70;58.40;;;;;;10435251;28;20122;-38
2022/09/09 09:44:28;;;;;;;2.15;1.00;;;23.80;58.50;;;;;;10434834;28;20463;-33
2022/09/09 09:49:32;;;;;;;3.60;0.90;;;23.40;59.00;;;;;;10430010;28;20049;-39
2022/09/09 09:54:37;;;;;;;2.63;1.15;;;23.80;58.50;;;;;;10436111;28;20134;-34
2022/09/09 09:59:40;;;;;;;3.88;1.15;;;24.40;59.00;;;;;;10435512;28;20084;-32
2022/09/09 10:04:45;;;;;;;3.10;1.40;;;23.40;59.40;;;;;;10433434;28;20041;-34
2022/09/09 10:09:50;;;;;;;6.38;1.65;;;24.40;59.30;;;;;;10431103;28;20045;-37
2022/09/09 10:15:02;;;;;;;3.95;1.58;;;23.70;59.00;;;;;;10434383;28;20099;-35
2022/09/09 10:20:22;;;;;;;3.13;0.90;;;23.90;58.40;;;;;;10434340;28;20520;-36
2022/09/09 10:25:45;;;;;;;2.20;1.08;;;23.90;58.20;;;;;;10434910;28;20045;-38
2022/09/09 10:30:57;;;;;;;3.25;1.00;;;23.80;58.80;;;;;;10431454;28;20132;-36
2022/09/09 10:36:10;;;;;;;3.65;0.80;;;23.60;60.50;;;;;;10431465;28;20061;-35
2022/09/09 10:41:18;;;;;;;2.88;0.98;;;23.70;59.10;;;;;;10428580;28;20543;-36
2022/09/09 10:46:29;;;;;;;3.60;1.20;;;24.00;59.40;;;;;;10431394;28;20077;-37
2022/09/09 10:51:42;;;;;;;3.25;1.02;;;23.80;59.10;;;;;;10432430;28;20072;-35
2022/09/09 10:56:49;;;;;;;5.55;1.13;;;23.70;59.90;;;;;;10428486;28;20048;-32
2022/09/09 11:01:56;;;;;;;4.45;1.30;;;23.70;61.00;;;;;;10425454;28;20107;-38
2022/09/09 11:07:06;;;;;;;2.15;0.82;;;23.70;59.30;;;;;;10433828;28;20139;-36
2022/09/09 11:12:16;;;;;;;4.10;1.00;;;23.90;58.90;;;;;;10441727;28;20068;-35
2022/09/09 11:17:22;;;;;;;2.30;0.88;;;24.10;58.80;;;;;;10435139;28;20049;-37
2022/09/09 11:22:31;;;;;;;7.68;1.55;;;23.60;61.10;;;;;;10440107;28;20077;-39
2022/09/09 11:27:40;;;;;;;6.45;1.40;;;23.40;61.90;;;;;;10440420;28;20081;-38
2022/09/09 11:33:09;;;;;;;2.53;0.80;;;23.20;61.60;;;;;;10439709;28;20128;-37
2022/09/09 11:38:22;;;;;;;3.92;0.88;;;23.70;61.00;;;;;;10437938;28;20045;-37
2022/09/09 11:43:27;;;;;;;1.70;0.80;;;22.50;64.60;;;;;;10434376;28;20129;-32
2022/09/09 11:48:43;;;;;;;3.85;1.30;;;21.60;69.30;;;;;;10437144;28;20112;-36
2022/09/09 11:53:54;;;;;;;1.48;0.70;;;22.90;63.70;;;;;;10438330;28;20080;-37
2022/09/09 11:58:59;;;;;;;2.97;0.80;;;23.20;62.80;;;;;;10432043;28;20153;-38
2022/09/09 12:04:33;;;;;;;6.10;0.88;;;22.70;66.00;;;;;;10434137;28;20041;-37
2022/09/09 12:09:51;;;;;;;3.28;0.80;;;23.30;62.70;;;;;;10438455;28;20163;-36
2022/09/09 12:15:02;;;;;;;3.63;0.90;;;24.00;60.40;;;;;;10439678;28;20493;-36
2022/09/09 12:20:14;;;;;;;4.60;1.10;;;23.60;61.60;;;;;;10439033;28;20045;-37
2022/09/09 12:25:27;;;;;;;3.03;1.02;;;22.50;66.70;;;;;;10436923;28;20124;-33
2022/09/09 12:30:35;;;;;;;3.42;0.90;;;23.60;61.70;;;;;;10437521;28;20041;-42
2022/09/09 12:35:38;;;;;;;4.28;0.93;;;24.10;61.60;;;;;;10440314;28;20102;-39
2022/09/09 12:40:42;;;;;;;1.33;0.63;;;23.60;61.20;;;;;;10438271;28;20517;-34
2022/09/09 12:45:45;;;;;;;0.73;0.63;;;23.00;63.50;;;;;;10441348;28;20068;-34
2022/09/09 12:50:50;;;;;;;2.33;0.60;;;23.70;61.20;;;;;;10436963;28;20047;-38
2022/09/09 12:55:56;;;;;;;3.10;0.95;;;23.60;61.70;;;;;;10439732;28;20115;-37
2022/09/09 13:01:04;;;;;;;2.65;0.80;;;23.50;62.50;;;;;;10439068;28;20470;-32
2022/09/09 13:06:14;;;;;;;1.80;0.60;;;23.60;62.30;;;;;;10432453;28;20100;-33
2022/09/09 13:11:22;;;;;;;5.40;0.88;;;23.60;61.40;;;;;;10437769;28;20402;-36
2022/09/09 13:16:31;;;;;;;8.07;1.13;;;22.10;69.10;;;;;;10435454;28;20076;-38
2022/09/09 13:21:34;;;;;;;3.50;1.13;;;21.10;70.70;;;;;;10433370;28;20134;-32
2022/09/09 13:26:38;;;;;;;2.88;0.75;;;21.80;67.40;;;;;;10434935;28;20037;-38
2022/09/09 13:31:41;;;;;;;3.35;0.70;;;23.20;62.80;;;;;;10434837;28;20132;-39
2022/09/09 13:36:48;;;;;;;4.10;0.88;;;23.30;61.80;;;;;;10430330;28;20045;-37
2022/09/09 13:41:52;;;;;;;4.05;0.90;;;23.90;64.10;;;;;;10429796;28;20087;-35
2022/09/09 13:47:05;;;;;;;3.17;1.23;;;23.30;62.60;;;;;;10428914;28;20124;-33
2022/09/09 13:52:11;;;;;;;5.72;1.17;;;24.00;60.60;;;;;;10426310;28;20045;-39
2022/09/09 13:57:18;;;;;;;2.75;0.70;;;23.60;61.70;;;;;;10425470;28;20061;-38
2022/09/09 14:02:21;;;;;;;6.82;1.00;;;23.60;61.80;;;;;;10428510;28;20056;-40
2022/09/09 14:07:23;;;;;;;8.68;1.45;;;23.00;64.10;;;;;;10425993;28;20673;-32
2022/09/09 14:12:26;;;;;;;5.45;0.82;;;20.90;78.00;;;;;;10425333;28;20045;-34
2022/09/09 14:17:29;;;;;;;2.65;0.88;;;22.50;70.30;;;;;;10423008;28;20132;-37
2022/09/09 14:22:31;;;;;;;4.80;0.88;;;22.50;68.30;;;;;;10423287;28;20190;-39
2022/09/09 14:27:34;;;;;;;10.18;1.10;;;21.40;71.00;;;;;;10431117;28;20175;-37
2022/09/09 14:32:36;;;;;;;3.42;1.48;;;21.40;71.70;;;;;;10431148;28;20531;-36
2022/09/09 14:37:39;;;;;;;9.05;1.70;;;22.10;68.30;;;;;;10430696;28;20053;-34
2022/09/09 14:42:42;;;;;;;9.05;1.42;;;21.30;71.40;;;;;;10433836;28;20076;-34
2022/09/09 14:47:44;;;;;;;3.42;1.20;;;20.90;72.30;;;;;;10439153;28;20106;-38
2022/09/09 14:52:46;;;;;;;3.55;1.13;;;21.40;72.20;;;;;;10439389;28;20425;-32
2022/09/09 14:57:49;;;;;;;7.07;1.20;;;21.50;70.10;;;;;;10439240;28;20134;-39
2022/09/09 15:02:53;;;;;;;3.75;1.63;;;20.80;76.90;;;;;;10437766;28;20522;-39
2022/09/09 15:07:55;;;;;;;7.28;0.90;;;21.70;69.20;;;;;;10412157;28;20053;-29
2022/09/09 15:12:58;;;;;;;;;;;24.20;63.20;;;;;;10392512;28;20542;-33
2022/09/09 15:18:00;;;;;;;3.58;0.80;;;24.20;61.50;;;;;;10395596;28;19935;-39
2022/09/09 15:23:01;;;;;;;;;;;24.30;61.60;;;;;;10399214;28;20136;-39
2022/09/09 15:28:05;;;;;;;4.72;0.80;;;24.20;62.70;;;;;;10394864;28;19924;-39
2022/09/09 15:33:09;;;;;;;4.28;1.10;;;24.70;61.80;;;;;;10396713;28;20049;-34
2022/09/09 15:38:12;;;;;;;5.65;1.02;;;24.50;61.70;;;;;;10394541;28;20076;-32
2022/09/09 15:43:15;;;;;;;4.65;1.30;;;24.50;62.00;;;;;;10390375;28;20041;-37
2022/09/09 15:48:17;;;;;;;3.55;1.08;;;24.20;63.00;;;;;;10388525;28;20231;-38
2022/09/09 15:53:21;;;;;;;9.18;1.10;;;23.90;63.60;;;;;;10392425;28;20139;-37
2022/09/09 15:58:24;;;;;;;6.70;1.48;;;23.70;64.30;;;;;;10395640;28;20057;-37
2022/09/09 16:03:26;;;;;;;7.38;2.55;;;23.50;64.80;;;;;;10396830;28;20081;-39
2022/09/09 16:08:33;;;;;;;8.73;2.15;;;22.80;66.00;;;;;;10398607;28;20049;-40
2022/09/09 16:13:36;;;;;;;6.65;2.10;;;23.00;65.80;;;;;;10395516;28;20045;-37
2022/09/09 16:18:40;;;;;;;13.13;2.65;;;23.50;63.70;;;;;;10391582;28;20053;-38
2022/09/09 16:23:42;;;;;;;6.10;2.25;;;22.80;63.90;;;;;;10396665;28;20139;-35
2022/09/09 16:28:46;;;;;;;4.25;2.10;;;23.60;64.10;;;;;;10396971;28;20053;-38
2022/09/09 16:33:50;;;;;;;3.75;1.55;;;23.80;63.80;;;;;;10397871;28;20054;-38
2022/09/09 16:38:54;;;;;;;5.05;1.40;;;23.50;63.90;;;;;;10393023;28;20056;-35
2022/09/09 16:43:59;;;;;;;3.35;1.60;;;23.40;62.60;;;;;;10393663;28;20045;-37
2022/09/09 16:49:03;;;;;;;5.70;1.80;;;23.50;64.50;;;;;;10389183;28;20478;-37
2022/09/09 16:54:07;;;;;;;5.45;1.38;;;23.60;63.30;;;;;;10395750;28;20139;-35
2022/09/09 16:59:13;;;;;;;6.00;1.83;;;23.50;64.50;;;;;;10392424;28;20060;-38
2022/09/09 17:04:20;;;;;;;6.47;1.67;;;23.90;63.10;;;;;;10394179;28;20127;-36
2022/09/09 17:09:23;;;;;;;7.90;1.75;;;24.20;62.30;;;;;;10399931;28;20572;-37
2022/09/09 17:14:26;;;;;;;5.45;1.65;;;24.50;61.50;;;;;;10398989;28;20049;-36
2022/09/09 17:19:28;;;;;;;10.23;1.80;;;24.40;61.90;;;;;;10397973;28;20049;-35
2022/09/09 17:24:30;;;;;;;;;;;23.60;64.20;;;;;;10399685;28;20695;-34
2022/09/09 17:29:35;;;;;;;6.72;1.45;;;23.70;66.10;;;;;;10399722;28;19960;-37
2022/09/09 17:34:37;;;;;;;10.35;1.52;;;24.00;64.20;;;;;;10400397;28;20049;-35
2022/09/09 17:39:39;;;;;;;12.07;2.17;;;24.60;61.90;;;;;;10396983;28;20453;-38
2022/09/09 17:44:43;;;;;;;12.57;2.13;;;24.60;61.90;;;;;;10397333;28;20077;-40
2022/09/09 17:49:45;;;;;;;18.23;3.28;;;24.50;61.70;;;;;;10396601;28;20093;-42
2022/09/09 17:54:46;;;;;;;9.48;2.20;;;24.60;61.40;;;;;;10395746;28;20126;-38
2022/09/09 17:59:50;;;;;;;;;;;24.60;61.50;;;;;;10414319;28;20059;-36
2022/09/09 18:04:51;;;;;;;12.27;1.63;;;24.20;62.40;;;;;;10395588;28;20382;-40
2022/09/09 18:09:53;;;;;;;;;;;24.20;62.40;;;;;;10393117;28;20132;-43
2022/09/09 18:14:56;;;;;;;9.73;2.28;;;24.50;61.90;;;;;;10387625;28;20015;-39
2022/09/09 18:19:58;;;;;;;4.65;1.17;;;23.50;64.40;;;;;;10398213;28;20064;-35
2022/09/09 18:25:00;;;;;;;;;;;24.30;62.50;;;;;;10398511;28;20133;-39
2022/09/09 18:30:03;;;;;;;6.80;1.30;;;24.40;61.60;;;;;;10396026;28;19929;-40
2022/09/09 18:35:06;;;;;;;6.28;1.48;;;24.40;61.40;;;;;;10398439;28;20056;-41
2022/09/09 18:40:08;;;;;;;9.60;1.48;;;23.80;63.80;;;;;;10390277;28;20698;-40
2022/09/09 18:45:11;;;;;;;7.32;1.20;;;23.30;64.90;;;;;;10395928;28;20141;-39
2022/09/09 18:50:13;;;;;;;6.72;1.30;;;22.90;66.40;;;;;;10398843;28;20127;-39
2022/09/09 18:55:14;;;;;;;7.82;1.48;;;23.20;65.30;;;;;;10395491;28;20744;-32
2022/09/09 19:00:18;;;;;;;5.68;1.02;;;23.10;66.40;;;;;;10394771;28;20045;-37
2022/09/09 19:05:20;;;;;;;6.75;1.30;;;23.70;64.10;;;;;;10396354;28;20962;-35
2022/09/09 19:10:21;;;;;;;4.43;1.35;;;23.10;65.20;;;;;;10400257;28;20116;-36
2022/09/09 19:15:24;;;;;;;8.13;1.60;;;22.80;67.40;;;;;;10392604;28;20044;-34
2022/09/09 19:20:26;;;;;;;2.17;0.80;;;23.40;64.60;;;;;;10398710;28;20723;-32
2022/09/09 19:25:28;;;;;;;4.40;1.38;;;23.20;65.10;;;;;;10400337;28;20056;-33
2022/09/09 19:30:33;;;;;;;3.33;1.13;;;23.10;64.10;;;;;;10398069;28;20242;-38
2022/09/09 19:35:35;;;;;;;5.72;1.17;;;23.60;63.20;;;;;;10399511;28;20153;-39
2022/09/09 19:40:37;;;;;;;;;;;23.90;62.20;;;;;;10400991;28;20045;-40
2022/09/09 19:45:40;;;;;;;3.45;0.75;;;24.10;61.90;;;;;;10402349;28;19925;-30
2022/09/09 19:50:43;;;;;;;3.00;0.82;;;24.10;61.40;;;;;;10403010;28;20049;-32
2022/09/09 19:55:45;;;;;;;3.20;0.90;;;24.20;61.10;;;;;;10396336;28;20513;-37
2022/09/09 20:00:48;;;;;;;;;;;24.20;61.00;;;;;;10407516;28;20109;-39
2022/09/09 20:05:49;;;;;;;9.52;0.90;;;24.10;61.30;;;;;;10394618;28;19964;-31
2022/09/09 20:10:52;;;;;;;;;;;24.10;61.00;;;;;;10399455;28;20080;-35
2022/09/09 20:16:00;;;;;;;13.15;1.25;;;24.40;61.00;;;;;;10398593;28;21025;-33
2022/09/09 20:21:04;;;;;;;8.93;1.50;;;24.20;60.80;;;;;;10397800;28;20147;-33
2022/09/09 20:26:07;;;;;;;6.93;1.45;;;24.20;60.70;;;;;;10393524;28;20050;-37
2022/09/09 20:31:12;;;;;;;5.00;1.27;;;24.20;60.70;;;;;;10394384;28;20449;-35
2022/09/09 20:36:16;;;;;;;6.60;1.00;;;24.20;61.00;;;;;;10402096;28;20053;-35
2022/09/09 20:41:20;;;;;;;5.50;1.48;;;24.10;60.80;;;;;;10400018;28;20053;-38
2022/09/09 20:46:27;;;;;;;6.20;1.58;;;24.20;60.90;;;;;;10397713;28;20144;-37
2022/09/09 20:51:31;;;;;;;12.13;2.35;;;24.10;61.00;;;;;;10403450;28;20149;-36
2022/09/09 20:56:36;;;;;;;10.07;1.55;;;24.10;60.90;;;;;;10398303;28;20096;-40
2022/09/09 21:01:39;;;;;;;5.97;1.33;;;24.10;60.80;;;;;;10400324;28;20099;-38
2022/09/09 21:06:41;;;;;;;5.75;1.25;;;24.10;60.90;;;;;;10392018;28;20085;-32
2022/09/09 21:11:43;;;;;;;;;;;23.60;62.30;;;;;;10397067;28;20148;-41
2022/09/09 21:16:46;;;;;;;7.23;1.53;;;24.00;61.80;;;;;;10394552;28;20027;-39
2022/09/09 21:21:48;;;;;;;4.30;1.20;;;23.90;61.10;;;;;;10394690;28;20504;-35
2022/09/09 21:26:50;;;;;;;;;;;23.90;61.10;;;;;;10393340;28;20413;-37
2022/09/09 21:31:54;;;;;;;5.67;1.40;;;23.90;61.20;;;;;;10395061;28;19928;-34
2022/09/09 21:36:56;;;;;;;5.15;1.40;;;23.90;61.10;;;;;;10395407;28;20593;-35
2022/09/09 21:42:00;;;;;;;4.78;1.20;;;23.90;61.10;;;;;;10395742;28;20057;-35
2022/09/09 21:47:03;;;;;;;5.82;1.23;;;24.00;61.40;;;;;;10378272;28;20077;-37
2022/09/09 21:52:05;;;;;;;6.97;1.27;;;23.90;61.20;;;;;;10394907;28;20048;-36
2022/09/09 21:57:06;;;;;;;;;;;24.10;61.40;;;;;;10394936;28;20049;-34
2022/09/09 22:02:11;;;;;;;3.83;0.90;;;23.60;62.20;;;;;;10396417;28;19925;-37
2022/09/09 22:07:15;;;;;;;5.95;1.83;;;23.80;61.60;;;;;;10394792;28;20063;-33
2022/09/09 22:12:17;;;;;;;5.15;1.25;;;23.90;61.70;;;;;;10393342;28;20402;-35
2022/09/09 22:17:23;;;;;;;7.10;1.90;;;23.80;62.00;;;;;;10392215;28;20137;-40
2022/09/09 22:22:25;;;;;;;3.33;1.10;;;23.90;61.20;;;;;;10391954;28;20072;-35
2022/09/09 22:27:27;;;;;;;5.28;0.93;;;23.90;61.20;;;;;;10392021;28;20132;-33
2022/09/09 22:32:30;;;;;;;;;;;23.90;61.00;;;;;;10392810;28;20077;-33
2022/09/09 22:37:31;;;;;;;4.82;1.20;;;23.90;60.90;;;;;;10390321;28;19960;-33
2022/09/09 22:42:33;;;;;;;;;;;23.80;61.10;;;;;;10391368;28;20057;-35
2022/09/09 22:47:39;;;;;;;3.60;1.00;;;23.80;61.20;;;;;;10392247;28;19968;-33
2022/09/09 22:52:41;;;;;;;4.90;1.23;;;23.80;61.50;;;;;;10388533;28;20441;-37
2022/09/09 22:57:43;;;;;;;;;;;23.50;62.20;;;;;;10391457;28;20088;-34
2022/09/09 23:02:47;;;;;;;4.25;1.23;;;23.60;61.90;;;;;;10384021;28;20386;-39
2022/09/09 23:07:51;;;;;;;4.35;0.80;;;23.70;61.70;;;;;;10407595;28;20500;-38
2022/09/09 23:12:53;;;;;;;4.15;1.00;;;23.80;61.90;;;;;;10398818;28;20053;-35
2022/09/09 23:17:57;;;;;;;;;;;23.70;61.40;;;;;;10405141;28;20530;-34
2022/09/09 23:23:00;;;;;;;3.10;0.95;;;23.40;62.20;;;;;;10402892;28;19924;-33
2022/09/09 23:28:02;;;;;;;4.40;1.02;;;23.60;61.50;;;;;;10408239;28;20553;-37
2022/09/09 23:33:05;;;;;;;1.45;0.90;;;23.60;61.70;;;;;;10403320;28;20042;-38
2022/09/09 23:38:09;;;;;;;4.85;1.30;;;23.50;62.50;;;;;;10409924;28;20055;-39
2022/09/09 23:43:10;;;;;;;3.05;0.82;;;22.80;64.60;;;;;;10415864;28;20726;-35
2022/09/09 23:48:14;;;;;;;2.60;1.00;;;22.30;66.00;;;;;;10420209;28;20144;-33
2022/09/09 23:53:17;;;;;;;4.75;0.98;;;22.80;64.50;;;;;;10399269;28;20045;-32
2022/09/09 23:58:19;;;;;;;4.60;0.90;;;23.00;63.20;;;;;;10402322;28;20140;-37
